sensor_id;sensor_type;location;lat;lon;timestamp;temperature;humidity
4564;DHT22;2294;51.818;8.484;2023-05-10T00:00:34;22.10;99.90
4564;DHT22;2294;51.818;8.484;2023-05-10T00:03:00;22.10;99.90
4564;DHT22;2294;51.818;8.484;2023-05-10T00:05:29;22.10;99.90
4564;DHT22;2294;51.818;8.484;2023-05-10T00:07:58;22.10;99.90
4564;DHT22;2294;51.818;8.484;2023-05-10T00:10:25;22.10;99.90
4564;DHT22;2294;51.818;8.484;2023-05-10T00:12:51;21.90;99.90
4564;DHT22;2294;51.818;8.484;2023-05-10T00:15:18;21.80;99.90
4564;DHT22;2294;51.818;8.484;2023-05-10T00:17:45;22.00;99.90
4564;DHT22;2294;51.818;8.484;2023-05-10T00:20:12;21.80;99.90
4564;DHT22;2294;51.818;8.484;2023-05-10T00:22:39;21.90;99.90
4564;DHT22;2294;51.818;8.484;2023-05-10T00:25:08;22.00;99.90
4564;DHT22;2294;51.818;8.484;2023-05-10T00:27:35;22.10;99.90
4564;DHT22;2294;51.818;8.484;2023-05-10T00:30:03;22.10;99.90
4564;DHT22;2294;51.818;8.484;2023-05-10T00:32:30;22.20;99.90
4564;DHT22;2294;51.818;8.484;2023-05-10T00:34:56;22.30;99.90
4564;DHT22;2294;51.818;8.484;2023-05-10T00:37:23;22.10;99.90
4564;DHT22;2294;51.818;8.484;2023-05-10T00:39:50;22.10;99.90
4564;DHT22;2294;51.818;8.484;2023-05-10T00:42:18;22.30;99.90
4564;DHT22;2294;51.818;8.484;2023-05-10T00:44:45;22.30;99.90
4564;DHT22;2294;51.818;8.484;2023-05-10T00:47:13;22.30;99.90
4564;DHT22;2294;51.818;8.484;2023-05-10T00:49:40;22.30;99.90
4564;DHT22;2294;51.818;8.484;2023-05-10T00:52:08;22.40;99.90
4564;DHT22;2294;51.818;8.484;2023-05-10T00:54:35;22.30;99.90
4564;DHT22;2294;51.818;8.484;2023-05-10T00:57:02;22.20;99.90
4564;DHT22;2294;51.818;8.484;2023-05-10T00:59:31;22.30;99.90
4564;DHT22;2294;51.818;8.484;2023-05-10T01:01:58;22.50;99.90
4564;DHT22;2294;51.818;8.484;2023-05-10T01:04:25;22.50;99.90
4564;DHT22;2294;51.818;8.484;2023-05-10T01:06:52;22.50;99.90
4564;DHT22;2294;51.818;8.484;2023-05-10T01:09:19;22.60;99.90
4564;DHT22;2294;51.818;8.484;2023-05-10T01:11:46;22.70;99.90
4564;DHT22;2294;51.818;8.484;2023-05-10T01:14:15;22.70;99.90
4564;DHT22;2294;51.818;8.484;2023-05-10T01:16:47;22.80;99.90
4564;DHT22;2294;51.818;8.484;2023-05-10T01:19:19;22.60;99.90
4564;DHT22;2294;51.818;8.484;2023-05-10T01:21:53;22.50;99.90
4564;DHT22;2294;51.818;8.484;2023-05-10T01:25:00;22.50;99.90
4564;DHT22;2294;51.818;8.484;2023-05-10T01:33:27;22.80;99.90
4564;DHT22;2294;51.818;8.484;2023-05-10T01:36:05;22.80;99.90
4564;DHT22;2294;51.818;8.484;2023-05-10T01:38:38;22.90;99.90
4564;DHT22;2294;51.818;8.484;2023-05-10T01:41:13;22.90;99.90
4564;DHT22;2294;51.818;8.484;2023-05-10T01:43:47;23.00;99.90
4564;DHT22;2294;51.818;8.484;2023-05-10T01:46:17;23.20;99.90
4564;DHT22;2294;51.818;8.484;2023-05-10T01:48:52;23.10;99.90
4564;DHT22;2294;51.818;8.484;2023-05-10T01:51:23;23.20;99.90
4564;DHT22;2294;51.818;8.484;2023-05-10T01:53:55;23.10;99.90
4564;DHT22;2294;51.818;8.484;2023-05-10T01:56:25;23.00;99.90
4564;DHT22;2294;51.818;8.484;2023-05-10T01:58:54;22.80;99.90
4564;DHT22;2294;51.818;8.484;2023-05-10T02:01:21;22.80;99.90
4564;DHT22;2294;51.818;8.484;2023-05-10T02:03:51;22.90;99.90
4564;DHT22;2294;51.818;8.484;2023-05-10T02:06:19;22.90;99.90
4564;DHT22;2294;51.818;8.484;2023-05-10T02:08:49;23.10;99.90
4564;DHT22;2294;51.818;8.484;2023-05-10T02:11:18;22.90;99.90
4564;DHT22;2294;51.818;8.484;2023-05-10T02:13:47;23.00;99.90
4564;DHT22;2294;51.818;8.484;2023-05-10T02:16:16;23.10;99.90
4564;DHT22;2294;51.818;8.484;2023-05-10T02:18:44;22.80;99.90
4564;DHT22;2294;51.818;8.484;2023-05-10T02:21:14;22.80;99.90
4564;DHT22;2294;51.818;8.484;2023-05-10T02:23:43;22.70;99.90
4564;DHT22;2294;51.818;8.484;2023-05-10T02:26:11;22.60;99.90
4564;DHT22;2294;51.818;8.484;2023-05-10T02:28:40;22.70;99.90
4564;DHT22;2294;51.818;8.484;2023-05-10T02:31:07;22.80;99.90
4564;DHT22;2294;51.818;8.484;2023-05-10T02:33:38;22.70;99.90
4564;DHT22;2294;51.818;8.484;2023-05-10T02:36:07;22.60;99.90
4564;DHT22;2294;51.818;8.484;2023-05-10T02:38:37;22.30;99.90
4564;DHT22;2294;51.818;8.484;2023-05-10T02:41:06;22.20;99.90
4564;DHT22;2294;51.818;8.484;2023-05-10T02:43:35;22.40;99.90
4564;DHT22;2294;51.818;8.484;2023-05-10T02:46:02;22.40;99.90
4564;DHT22;2294;51.818;8.484;2023-05-10T02:48:29;22.40;99.90
4564;DHT22;2294;51.818;8.484;2023-05-10T02:51:00;22.40;99.90
4564;DHT22;2294;51.818;8.484;2023-05-10T02:53:31;22.30;99.90
4564;DHT22;2294;51.818;8.484;2023-05-10T02:56:07;22.40;99.90
4564;DHT22;2294;51.818;8.484;2023-05-10T02:58:38;22.40;99.90
4564;DHT22;2294;51.818;8.484;2023-05-10T03:01:05;22.30;99.90
4564;DHT22;2294;51.818;8.484;2023-05-10T03:03:33;22.30;99.90
4564;DHT22;2294;51.818;8.484;2023-05-10T03:06:00;22.30;99.90
4564;DHT22;2294;51.818;8.484;2023-05-10T03:08:27;22.40;99.90
4564;DHT22;2294;51.818;8.484;2023-05-10T03:11:05;22.30;99.90
4564;DHT22;2294;51.818;8.484;2023-05-10T03:13:42;22.20;99.90
4564;DHT22;2294;51.818;8.484;2023-05-10T03:16:15;22.20;99.90
4564;DHT22;2294;51.818;8.484;2023-05-10T03:18:47;22.10;99.90
4564;DHT22;2294;51.818;8.484;2023-05-10T03:21:18;22.20;99.90
4564;DHT22;2294;51.818;8.484;2023-05-10T03:23:48;22.10;99.90
4564;DHT22;2294;51.818;8.484;2023-05-10T03:26:23;21.90;99.90
4564;DHT22;2294;51.818;8.484;2023-05-10T03:28:51;21.90;99.90
4564;DHT22;2294;51.818;8.484;2023-05-10T03:31:19;21.70;99.90
4564;DHT22;2294;51.818;8.484;2023-05-10T03:33:46;21.90;99.90
4564;DHT22;2294;51.818;8.484;2023-05-10T03:36:14;21.80;99.90
4564;DHT22;2294;51.818;8.484;2023-05-10T03:38:41;21.50;99.90
4564;DHT22;2294;51.818;8.484;2023-05-10T03:41:08;21.50;99.90
4564;DHT22;2294;51.818;8.484;2023-05-10T03:43:36;21.50;99.90
4564;DHT22;2294;51.818;8.484;2023-05-10T03:46:04;21.40;99.90
4564;DHT22;2294;51.818;8.484;2023-05-10T03:48:32;21.60;99.90
4564;DHT22;2294;51.818;8.484;2023-05-10T03:50:59;21.40;99.90
4564;DHT22;2294;51.818;8.484;2023-05-10T03:53:26;21.50;99.90
4564;DHT22;2294;51.818;8.484;2023-05-10T03:55:53;21.50;99.90
4564;DHT22;2294;51.818;8.484;2023-05-10T03:58:20;21.50;99.90
4564;DHT22;2294;51.818;8.484;2023-05-10T04:00:48;21.60;99.90
4564;DHT22;2294;51.818;8.484;2023-05-10T04:03:15;21.30;99.90
4564;DHT22;2294;51.818;8.484;2023-05-10T04:05:42;21.30;99.90
4564;DHT22;2294;51.818;8.484;2023-05-10T04:08:09;21.10;99.90
4564;DHT22;2294;51.818;8.484;2023-05-10T04:10:36;21.00;99.90
4564;DHT22;2294;51.818;8.484;2023-05-10T04:13:03;20.80;99.90
4564;DHT22;2294;51.818;8.484;2023-05-10T04:15:30;21.10;99.90
4564;DHT22;2294;51.818;8.484;2023-05-10T04:17:58;21.30;99.90
4564;DHT22;2294;51.818;8.484;2023-05-10T04:20:25;21.30;99.90
4564;DHT22;2294;51.818;8.484;2023-05-10T04:22:51;21.10;99.90
4564;DHT22;2294;51.818;8.484;2023-05-10T04:25:19;20.80;99.90
4564;DHT22;2294;51.818;8.484;2023-05-10T04:27:46;20.60;99.90
4564;DHT22;2294;51.818;8.484;2023-05-10T04:30:13;20.60;99.90
4564;DHT22;2294;51.818;8.484;2023-05-10T04:32:40;20.90;99.90
4564;DHT22;2294;51.818;8.484;2023-05-10T04:35:08;21.00;99.90
4564;DHT22;2294;51.818;8.484;2023-05-10T04:37:36;20.70;99.90
4564;DHT22;2294;51.818;8.484;2023-05-10T04:40:04;20.70;99.90
4564;DHT22;2294;51.818;8.484;2023-05-10T04:42:31;20.70;99.90
4564;DHT22;2294;51.818;8.484;2023-05-10T04:44:58;20.70;99.90
4564;DHT22;2294;51.818;8.484;2023-05-10T04:47:25;20.70;99.90
4564;DHT22;2294;51.818;8.484;2023-05-10T04:49:52;20.70;99.90
4564;DHT22;2294;51.818;8.484;2023-05-10T04:52:20;20.60;99.90
4564;DHT22;2294;51.818;8.484;2023-05-10T04:54:47;20.70;99.90
4564;DHT22;2294;51.818;8.484;2023-05-10T04:57:14;20.90;99.90
4564;DHT22;2294;51.818;8.484;2023-05-10T04:59:40;20.90;99.90
4564;DHT22;2294;51.818;8.484;2023-05-10T05:02:08;20.90;99.90
4564;DHT22;2294;51.818;8.484;2023-05-10T05:04:34;21.00;99.90
4564;DHT22;2294;51.818;8.484;2023-05-10T05:07:01;20.90;99.90
4564;DHT22;2294;51.818;8.484;2023-05-10T05:09:30;21.00;99.90
4564;DHT22;2294;51.818;8.484;2023-05-10T05:11:57;20.90;99.90
4564;DHT22;2294;51.818;8.484;2023-05-10T05:14:24;20.90;99.90
4564;DHT22;2294;51.818;8.484;2023-05-10T05:16:51;21.10;99.90
4564;DHT22;2294;51.818;8.484;2023-05-10T05:19:18;21.20;99.90
4564;DHT22;2294;51.818;8.484;2023-05-10T05:21:45;20.80;99.90
4564;DHT22;2294;51.818;8.484;2023-05-10T05:24:12;20.80;99.90
4564;DHT22;2294;51.818;8.484;2023-05-10T05:26:40;20.90;99.90
4564;DHT22;2294;51.818;8.484;2023-05-10T05:29:07;20.80;99.90
4564;DHT22;2294;51.818;8.484;2023-05-10T05:31:34;21.10;99.90
4564;DHT22;2294;51.818;8.484;2023-05-10T05:34:01;21.10;99.90
4564;DHT22;2294;51.818;8.484;2023-05-10T05:36:28;20.60;99.90
4564;DHT22;2294;51.818;8.484;2023-05-10T05:41:22;20.70;99.90
4564;DHT22;2294;51.818;8.484;2023-05-10T05:43:51;20.40;99.90
4564;DHT22;2294;51.818;8.484;2023-05-10T05:46:18;20.60;99.90
4564;DHT22;2294;51.818;8.484;2023-05-10T05:48:45;20.50;99.90
4564;DHT22;2294;51.818;8.484;2023-05-10T05:51:11;20.60;99.90
4564;DHT22;2294;51.818;8.484;2023-05-10T05:53:38;20.80;99.90
4564;DHT22;2294;51.818;8.484;2023-05-10T05:56:05;20.60;99.90
4564;DHT22;2294;51.818;8.484;2023-05-10T05:58:33;20.50;99.90
4564;DHT22;2294;51.818;8.484;2023-05-10T06:01:01;20.50;99.90
4564;DHT22;2294;51.818;8.484;2023-05-10T06:03:28;20.10;99.90
4564;DHT22;2294;51.818;8.484;2023-05-10T06:05:55;20.10;99.90
4564;DHT22;2294;51.818;8.484;2023-05-10T06:08:22;20.30;99.90
4564;DHT22;2294;51.818;8.484;2023-05-10T06:10:49;20.00;99.90
4564;DHT22;2294;51.818;8.484;2023-05-10T06:13:16;20.00;99.90
4564;DHT22;2294;51.818;8.484;2023-05-10T06:15:43;20.20;99.90
4564;DHT22;2294;51.818;8.484;2023-05-10T06:18:12;19.90;99.90
4564;DHT22;2294;51.818;8.484;2023-05-10T06:20:40;20.00;99.90
4564;DHT22;2294;51.818;8.484;2023-05-10T06:23:07;20.00;99.90
4564;DHT22;2294;51.818;8.484;2023-05-10T06:25:34;20.20;99.90
4564;DHT22;2294;51.818;8.484;2023-05-10T06:28:01;20.30;99.90
4564;DHT22;2294;51.818;8.484;2023-05-10T06:30:28;20.20;99.90
4564;DHT22;2294;51.818;8.484;2023-05-10T06:32:54;20.20;99.90
4564;DHT22;2294;51.818;8.484;2023-05-10T06:35:23;20.00;99.90
4564;DHT22;2294;51.818;8.484;2023-05-10T06:37:50;20.00;99.90
4564;DHT22;2294;51.818;8.484;2023-05-10T06:40:18;20.10;99.90
4564;DHT22;2294;51.818;8.484;2023-05-10T06:42:45;20.00;99.90
4564;DHT22;2294;51.818;8.484;2023-05-10T06:45:12;19.90;99.90
4564;DHT22;2294;51.818;8.484;2023-05-10T06:47:39;19.70;99.90
4564;DHT22;2294;51.818;8.484;2023-05-10T06:50:07;20.10;99.90
4564;DHT22;2294;51.818;8.484;2023-05-10T06:52:36;19.90;99.90
4564;DHT22;2294;51.818;8.484;2023-05-10T06:55:03;19.90;99.90
4564;DHT22;2294;51.818;8.484;2023-05-10T06:57:30;20.00;99.90
4564;DHT22;2294;51.818;8.484;2023-05-10T06:59:59;20.10;99.90
4564;DHT22;2294;51.818;8.484;2023-05-10T07:02:26;19.90;99.90
4564;DHT22;2294;51.818;8.484;2023-05-10T07:04:53;20.10;99.90
4564;DHT22;2294;51.818;8.484;2023-05-10T07:07:20;20.00;99.90
4564;DHT22;2294;51.818;8.484;2023-05-10T07:09:49;19.80;99.90
4564;DHT22;2294;51.818;8.484;2023-05-10T07:12:16;20.00;99.90
4564;DHT22;2294;51.818;8.484;2023-05-10T07:14:43;19.70;99.90
4564;DHT22;2294;51.818;8.484;2023-05-10T07:17:10;19.60;99.90
4564;DHT22;2294;51.818;8.484;2023-05-10T07:19:37;19.60;99.90
4564;DHT22;2294;51.818;8.484;2023-05-10T07:22:04;19.60;99.90
4564;DHT22;2294;51.818;8.484;2023-05-10T07:24:32;19.80;99.90
4564;DHT22;2294;51.818;8.484;2023-05-10T07:27:00;20.00;99.90
4564;DHT22;2294;51.818;8.484;2023-05-10T07:29:27;19.70;99.90
4564;DHT22;2294;51.818;8.484;2023-05-10T07:31:55;19.50;99.90
4564;DHT22;2294;51.818;8.484;2023-05-10T07:34:22;19.60;99.90
4564;DHT22;2294;51.818;8.484;2023-05-10T07:36:49;19.40;99.90
4564;DHT22;2294;51.818;8.484;2023-05-10T07:39:16;18.90;99.90
4564;DHT22;2294;51.818;8.484;2023-05-10T07:41:43;18.70;99.90
4564;DHT22;2294;51.818;8.484;2023-05-10T07:44:11;18.70;99.90
4564;DHT22;2294;51.818;8.484;2023-05-10T07:46:38;18.70;99.90
4564;DHT22;2294;51.818;8.484;2023-05-10T07:49:05;19.00;99.90
4564;DHT22;2294;51.818;8.484;2023-05-10T07:51:32;18.40;99.90
4564;DHT22;2294;51.818;8.484;2023-05-10T07:53:59;18.90;99.90
4564;DHT22;2294;51.818;8.484;2023-05-10T07:56:27;18.80;99.90
4564;DHT22;2294;51.818;8.484;2023-05-10T07:58:55;18.90;99.90
4564;DHT22;2294;51.818;8.484;2023-05-10T08:03:51;18.90;99.90
4564;DHT22;2294;51.818;8.484;2023-05-10T08:06:19;18.70;99.90
4564;DHT22;2294;51.818;8.484;2023-05-10T08:08:47;18.60;99.90
4564;DHT22;2294;51.818;8.484;2023-05-10T08:11:15;18.50;99.90
4564;DHT22;2294;51.818;8.484;2023-05-10T08:13:42;18.70;99.90
4564;DHT22;2294;51.818;8.484;2023-05-10T08:16:09;18.80;99.90
4564;DHT22;2294;51.818;8.484;2023-05-10T08:18:38;18.60;99.90
4564;DHT22;2294;51.818;8.484;2023-05-10T08:21:06;18.40;99.90
4564;DHT22;2294;51.818;8.484;2023-05-10T08:23:33;18.40;99.90
4564;DHT22;2294;51.818;8.484;2023-05-10T08:26:00;18.60;99.90
4564;DHT22;2294;51.818;8.484;2023-05-10T08:28:27;18.10;99.90
4564;DHT22;2294;51.818;8.484;2023-05-10T08:30:54;18.10;99.90
4564;DHT22;2294;51.818;8.484;2023-05-10T08:33:21;17.40;99.90
4564;DHT22;2294;51.818;8.484;2023-05-10T08:35:49;18.00;99.90
4564;DHT22;2294;51.818;8.484;2023-05-10T08:38:16;18.30;99.90
4564;DHT22;2294;51.818;8.484;2023-05-10T08:40:44;18.60;99.90
4564;DHT22;2294;51.818;8.484;2023-05-10T08:43:12;19.10;99.90
4564;DHT22;2294;51.818;8.484;2023-05-10T08:45:41;18.30;99.90
4564;DHT22;2294;51.818;8.484;2023-05-10T08:48:09;18.40;99.90
4564;DHT22;2294;51.818;8.484;2023-05-10T08:50:38;18.20;99.90
4564;DHT22;2294;51.818;8.484;2023-05-10T08:53:10;18.50;99.90
4564;DHT22;2294;51.818;8.484;2023-05-10T08:55:37;18.40;99.90
4564;DHT22;2294;51.818;8.484;2023-05-10T08:58:06;18.30;99.90
4564;DHT22;2294;51.818;8.484;2023-05-10T09:00:33;18.50;99.90
4564;DHT22;2294;51.818;8.484;2023-05-10T09:03:02;18.90;99.90
4564;DHT22;2294;51.818;8.484;2023-05-10T09:05:29;19.40;99.90
4564;DHT22;2294;51.818;8.484;2023-05-10T09:07:56;19.40;99.90
4564;DHT22;2294;51.818;8.484;2023-05-10T09:10:26;18.90;99.90
4564;DHT22;2294;51.818;8.484;2023-05-10T09:12:56;18.80;99.90
4564;DHT22;2294;51.818;8.484;2023-05-10T09:15:23;19.00;99.90
4564;DHT22;2294;51.818;8.484;2023-05-10T09:17:50;19.50;99.90
4564;DHT22;2294;51.818;8.484;2023-05-10T09:20:17;19.00;99.90
4564;DHT22;2294;51.818;8.484;2023-05-10T09:22:44;19.30;99.90
4564;DHT22;2294;51.818;8.484;2023-05-10T09:25:12;19.50;99.90
4564;DHT22;2294;51.818;8.484;2023-05-10T09:27:43;18.90;99.90
4564;DHT22;2294;51.818;8.484;2023-05-10T09:30:15;18.50;99.90
4564;DHT22;2294;51.818;8.484;2023-05-10T09:32:44;18.90;99.90
4564;DHT22;2294;51.818;8.484;2023-05-10T09:35:12;18.80;99.90
4564;DHT22;2294;51.818;8.484;2023-05-10T09:37:40;18.50;99.90
4564;DHT22;2294;51.818;8.484;2023-05-10T09:40:12;18.90;99.90
4564;DHT22;2294;51.818;8.484;2023-05-10T09:42:41;18.60;99.90
4564;DHT22;2294;51.818;8.484;2023-05-10T09:45:09;18.60;99.90
4564;DHT22;2294;51.818;8.484;2023-05-10T09:47:36;18.60;99.90
4564;DHT22;2294;51.818;8.484;2023-05-10T09:50:04;18.40;99.90
4564;DHT22;2294;51.818;8.484;2023-05-10T09:52:31;18.20;99.90
4564;DHT22;2294;51.818;8.484;2023-05-10T09:55:11;17.90;99.90
4564;DHT22;2294;51.818;8.484;2023-05-10T09:57:40;18.30;99.90
4564;DHT22;2294;51.818;8.484;2023-05-10T10:00:08;18.10;99.90
4564;DHT22;2294;51.818;8.484;2023-05-10T10:02:35;18.20;99.90
4564;DHT22;2294;51.818;8.484;2023-05-10T10:05:03;17.90;99.90
4564;DHT22;2294;51.818;8.484;2023-05-10T10:07:30;17.40;99.90
4564;DHT22;2294;51.818;8.484;2023-05-10T10:09:58;18.10;99.90
4564;DHT22;2294;51.818;8.484;2023-05-10T10:12:25;18.10;99.90
4564;DHT22;2294;51.818;8.484;2023-05-10T10:14:56;17.30;99.90
4564;DHT22;2294;51.818;8.484;2023-05-10T10:17:25;18.30;99.90
4564;DHT22;2294;51.818;8.484;2023-05-10T10:19:54;18.40;99.90
4564;DHT22;2294;51.818;8.484;2023-05-10T10:22:22;18.50;99.90
4564;DHT22;2294;51.818;8.484;2023-05-10T10:24:50;18.80;99.90
4564;DHT22;2294;51.818;8.484;2023-05-10T10:27:22;19.40;99.90
4564;DHT22;2294;51.818;8.484;2023-05-10T10:30:01;19.00;99.90
4564;DHT22;2294;51.818;8.484;2023-05-10T10:32:36;18.80;99.90
4564;DHT22;2294;51.818;8.484;2023-05-10T10:35:06;18.70;99.90
4564;DHT22;2294;51.818;8.484;2023-05-10T10:37:44;18.90;99.90
4564;DHT22;2294;51.818;8.484;2023-05-10T10:40:28;19.00;99.90
4564;DHT22;2294;51.818;8.484;2023-05-10T10:42:56;18.60;99.90
4564;DHT22;2294;51.818;8.484;2023-05-10T10:45:25;18.80;99.90
4564;DHT22;2294;51.818;8.484;2023-05-10T10:48:21;17.80;99.90
4564;DHT22;2294;51.818;8.484;2023-05-10T10:50:56;17.40;99.90
4564;DHT22;2294;51.818;8.484;2023-05-10T10:53:26;17.80;99.90
4564;DHT22;2294;51.818;8.484;2023-05-10T10:56:05;18.00;99.90
4564;DHT22;2294;51.818;8.484;2023-05-10T10:58:33;18.10;99.90
4564;DHT22;2294;51.818;8.484;2023-05-10T11:01:15;17.70;99.90
4564;DHT22;2294;51.818;8.484;2023-05-10T11:06:36;17.70;99.90
4564;DHT22;2294;51.818;8.484;2023-05-10T11:09:06;17.70;99.90
4564;DHT22;2294;51.818;8.484;2023-05-10T11:11:34;18.30;99.90
4564;DHT22;2294;51.818;8.484;2023-05-10T11:14:03;19.00;99.90
4564;DHT22;2294;51.818;8.484;2023-05-10T11:16:41;18.40;99.90
4564;DHT22;2294;51.818;8.484;2023-05-10T11:19:10;19.80;99.90
4564;DHT22;2294;51.818;8.484;2023-05-10T11:21:45;19.70;99.90
4564;DHT22;2294;51.818;8.484;2023-05-10T11:24:13;19.70;99.90
4564;DHT22;2294;51.818;8.484;2023-05-10T11:26:41;19.40;99.90
4564;DHT22;2294;51.818;8.484;2023-05-10T11:29:08;18.50;99.90
4564;DHT22;2294;51.818;8.484;2023-05-10T11:31:42;17.80;99.90
4564;DHT22;2294;51.818;8.484;2023-05-10T11:34:09;17.50;99.90
4564;DHT22;2294;51.818;8.484;2023-05-10T11:36:36;17.30;99.90
4564;DHT22;2294;51.818;8.484;2023-05-10T11:39:04;17.30;99.90
4564;DHT22;2294;51.818;8.484;2023-05-10T11:41:31;17.30;99.90
4564;DHT22;2294;51.818;8.484;2023-05-10T11:43:59;17.10;99.90
4564;DHT22;2294;51.818;8.484;2023-05-10T11:46:27;16.90;99.90
4564;DHT22;2294;51.818;8.484;2023-05-10T11:48:58;17.00;99.90
4564;DHT22;2294;51.818;8.484;2023-05-10T11:51:27;16.80;99.90
4564;DHT22;2294;51.818;8.484;2023-05-10T11:53:55;16.80;99.90
4564;DHT22;2294;51.818;8.484;2023-05-10T11:56:22;17.00;99.90
4564;DHT22;2294;51.818;8.484;2023-05-10T11:58:55;16.90;99.90
4564;DHT22;2294;51.818;8.484;2023-05-10T12:01:23;17.20;99.90
4564;DHT22;2294;51.818;8.484;2023-05-10T12:03:51;17.40;99.90
4564;DHT22;2294;51.818;8.484;2023-05-10T12:06:21;17.80;99.90
4564;DHT22;2294;51.818;8.484;2023-05-10T12:08:48;18.10;99.90
4564;DHT22;2294;51.818;8.484;2023-05-10T12:11:18;18.50;99.90
4564;DHT22;2294;51.818;8.484;2023-05-10T12:13:46;18.10;99.90
4564;DHT22;2294;51.818;8.484;2023-05-10T12:16:15;17.70;99.90
4564;DHT22;2294;51.818;8.484;2023-05-10T12:18:42;19.20;99.90
4564;DHT22;2294;51.818;8.484;2023-05-10T12:21:10;19.40;99.90
4564;DHT22;2294;51.818;8.484;2023-05-10T12:23:39;19.70;99.90
4564;DHT22;2294;51.818;8.484;2023-05-10T12:26:07;19.40;99.90
4564;DHT22;2294;51.818;8.484;2023-05-10T12:28:35;19.00;99.90
4564;DHT22;2294;51.818;8.484;2023-05-10T12:31:02;18.90;99.90
4564;DHT22;2294;51.818;8.484;2023-05-10T12:33:36;18.00;99.90
4564;DHT22;2294;51.818;8.484;2023-05-10T12:36:04;17.20;99.90
4564;DHT22;2294;51.818;8.484;2023-05-10T12:38:37;17.30;99.90
4564;DHT22;2294;51.818;8.484;2023-05-10T12:41:07;17.00;99.90
4564;DHT22;2294;51.818;8.484;2023-05-10T12:43:35;17.80;99.90
4564;DHT22;2294;51.818;8.484;2023-05-10T12:46:06;17.00;99.90
4564;DHT22;2294;51.818;8.484;2023-05-10T12:48:34;17.10;99.90
4564;DHT22;2294;51.818;8.484;2023-05-10T12:51:01;17.40;99.90
4564;DHT22;2294;51.818;8.484;2023-05-10T12:53:28;17.10;99.90
4564;DHT22;2294;51.818;8.484;2023-05-10T12:55:55;17.40;99.90
4564;DHT22;2294;51.818;8.484;2023-05-10T12:58:23;18.00;99.90
4564;DHT22;2294;51.818;8.484;2023-05-10T13:00:50;18.20;99.90
4564;DHT22;2294;51.818;8.484;2023-05-10T13:03:18;17.40;99.90
4564;DHT22;2294;51.818;8.484;2023-05-10T13:05:45;17.10;99.90
4564;DHT22;2294;51.818;8.484;2023-05-10T13:08:12;17.40;99.90
4564;DHT22;2294;51.818;8.484;2023-05-10T13:10:39;17.20;99.90
4564;DHT22;2294;51.818;8.484;2023-05-10T13:13:06;16.90;99.90
4564;DHT22;2294;51.818;8.484;2023-05-10T13:15:35;17.10;99.90
4564;DHT22;2294;51.818;8.484;2023-05-10T13:18:02;16.90;99.90
4564;DHT22;2294;51.818;8.484;2023-05-10T13:20:29;17.00;99.90
4564;DHT22;2294;51.818;8.484;2023-05-10T13:22:56;17.60;99.90
4564;DHT22;2294;51.818;8.484;2023-05-10T13:25:23;16.50;99.90
4564;DHT22;2294;51.818;8.484;2023-05-10T13:27:49;16.80;99.90
4564;DHT22;2294;51.818;8.484;2023-05-10T13:30:16;17.20;99.90
4564;DHT22;2294;51.818;8.484;2023-05-10T13:32:44;17.40;99.90
4564;DHT22;2294;51.818;8.484;2023-05-10T13:35:11;17.20;99.90
4564;DHT22;2294;51.818;8.484;2023-05-10T13:37:38;17.30;99.90
4564;DHT22;2294;51.818;8.484;2023-05-10T13:40:06;17.40;99.90
4564;DHT22;2294;51.818;8.484;2023-05-10T13:42:33;17.40;99.90
4564;DHT22;2294;51.818;8.484;2023-05-10T13:45:00;17.20;99.90
4564;DHT22;2294;51.818;8.484;2023-05-10T13:47:27;17.00;99.90
4564;DHT22;2294;51.818;8.484;2023-05-10T13:49:55;17.40;99.90
4564;DHT22;2294;51.818;8.484;2023-05-10T13:52:23;17.30;99.90
4564;DHT22;2294;51.818;8.484;2023-05-10T13:54:50;17.60;99.90
4564;DHT22;2294;51.818;8.484;2023-05-10T13:57:20;17.90;99.90
4564;DHT22;2294;51.818;8.484;2023-05-10T13:59:47;17.50;99.90
4564;DHT22;2294;51.818;8.484;2023-05-10T14:02:14;17.90;99.90
4564;DHT22;2294;51.818;8.484;2023-05-10T14:04:40;18.20;99.90
4564;DHT22;2294;51.818;8.484;2023-05-10T14:07:09;18.40;99.90
4564;DHT22;2294;51.818;8.484;2023-05-10T14:09:35;18.40;99.90
4564;DHT22;2294;51.818;8.484;2023-05-10T14:12:03;18.60;99.90
4564;DHT22;2294;51.818;8.484;2023-05-10T14:14:30;18.50;99.90
4564;DHT22;2294;51.818;8.484;2023-05-10T14:16:56;18.40;99.90
4564;DHT22;2294;51.818;8.484;2023-05-10T14:19:24;18.40;99.90
4564;DHT22;2294;51.818;8.484;2023-05-10T14:21:52;18.30;99.90
4564;DHT22;2294;51.818;8.484;2023-05-10T14:24:20;18.50;99.90
4564;DHT22;2294;51.818;8.484;2023-05-10T14:26:47;18.00;99.90
4564;DHT22;2294;51.818;8.484;2023-05-10T14:29:14;18.10;99.90
4564;DHT22;2294;51.818;8.484;2023-05-10T14:31:41;18.30;99.90
4564;DHT22;2294;51.818;8.484;2023-05-10T14:34:07;18.70;99.90
4564;DHT22;2294;51.818;8.484;2023-05-10T14:36:34;18.90;99.90
4564;DHT22;2294;51.818;8.484;2023-05-10T14:39:01;18.90;99.90
4564;DHT22;2294;51.818;8.484;2023-05-10T14:41:30;19.00;99.90
4564;DHT22;2294;51.818;8.484;2023-05-10T14:43:57;19.10;99.90
4564;DHT22;2294;51.818;8.484;2023-05-10T14:46:24;19.00;99.90
4564;DHT22;2294;51.818;8.484;2023-05-10T14:48:51;19.10;99.90
4564;DHT22;2294;51.818;8.484;2023-05-10T14:51:18;18.90;99.90
4564;DHT22;2294;51.818;8.484;2023-05-10T14:53:47;19.00;99.90
4564;DHT22;2294;51.818;8.484;2023-05-10T14:56:14;19.10;99.90
4564;DHT22;2294;51.818;8.484;2023-05-10T14:58:43;19.10;99.90
4564;DHT22;2294;51.818;8.484;2023-05-10T15:01:09;19.10;99.90
4564;DHT22;2294;51.818;8.484;2023-05-10T15:03:36;19.30;99.90
4564;DHT22;2294;51.818;8.484;2023-05-10T15:06:04;19.50;99.90
4564;DHT22;2294;51.818;8.484;2023-05-10T15:08:31;19.60;99.90
4564;DHT22;2294;51.818;8.484;2023-05-10T15:10:58;19.50;99.90
4564;DHT22;2294;51.818;8.484;2023-05-10T15:13:25;19.40;99.90
4564;DHT22;2294;51.818;8.484;2023-05-10T15:15:54;19.20;99.90
4564;DHT22;2294;51.818;8.484;2023-05-10T15:18:21;19.20;99.90
4564;DHT22;2294;51.818;8.484;2023-05-10T15:20:47;19.00;99.90
4564;DHT22;2294;51.818;8.484;2023-05-10T15:23:14;18.80;99.90
4564;DHT22;2294;51.818;8.484;2023-05-10T15:25:41;18.80;99.90
4564;DHT22;2294;51.818;8.484;2023-05-10T15:28:08;18.70;99.90
4564;DHT22;2294;51.818;8.484;2023-05-10T15:30:35;18.60;99.90
4564;DHT22;2294;51.818;8.484;2023-05-10T15:33:04;18.50;99.90
4564;DHT22;2294;51.818;8.484;2023-05-10T15:35:30;18.70;99.90
4564;DHT22;2294;51.818;8.484;2023-05-10T15:37:58;18.70;99.90
4564;DHT22;2294;51.818;8.484;2023-05-10T15:40:25;18.90;99.90
4564;DHT22;2294;51.818;8.484;2023-05-10T15:42:52;18.90;99.90
4564;DHT22;2294;51.818;8.484;2023-05-10T15:45:19;18.90;99.90
4564;DHT22;2294;51.818;8.484;2023-05-10T15:47:47;19.00;99.90
4564;DHT22;2294;51.818;8.484;2023-05-10T15:50:15;19.00;99.90
4564;DHT22;2294;51.818;8.484;2023-05-10T15:52:42;19.00;99.90
4564;DHT22;2294;51.818;8.484;2023-05-10T15:55:09;19.20;99.90
4564;DHT22;2294;51.818;8.484;2023-05-10T15:57:38;19.30;99.90
4564;DHT22;2294;51.818;8.484;2023-05-10T16:00:06;19.20;99.90
4564;DHT22;2294;51.818;8.484;2023-05-10T16:02:33;19.30;99.90
4564;DHT22;2294;51.818;8.484;2023-05-10T16:05:00;19.50;99.90
4564;DHT22;2294;51.818;8.484;2023-05-10T16:07:28;19.60;99.90
4564;DHT22;2294;51.818;8.484;2023-05-10T16:09:56;19.70;99.90
4564;DHT22;2294;51.818;8.484;2023-05-10T16:12:22;19.60;99.90
4564;DHT22;2294;51.818;8.484;2023-05-10T16:14:50;19.60;99.90
4564;DHT22;2294;51.818;8.484;2023-05-10T16:17:17;19.70;99.90
4564;DHT22;2294;51.818;8.484;2023-05-10T16:19:44;19.80;99.90
4564;DHT22;2294;51.818;8.484;2023-05-10T16:22:12;19.70;99.90